Time;durP1;ratioP1;P1;durP2;ratioP2;P2;SDS_P1;SDS_P2;PMS_P1;PMS_P2;Temp;Humidity;BMP_temperature;BMP_pressure;BME280_temperature;BME280_humidity;BME280_pressure;Samples;Min_cycle;Max_cycle;Signal;HPM_P1;HPM_P2
2021/11/12 00:13:29;;;;;;;5.00;4.60;;;21.90;54.20;;;;;;5056708;28;20390;-76
2021/11/12 00:16:00;;;;;;;4.70;4.30;;;21.90;54.30;;;;;;5056644;28;20409;-74
2021/11/12 00:18:28;;;;;;;5.07;4.53;;;21.90;54.30;;;;;;5038527;28;20451;-75
2021/11/12 00:20:56;;;;;;;4.80;4.33;;;21.90;54.30;;;;;;5038689;28;20849;-74
2021/11/12 00:23:23;;;;;;;4.60;4.20;;;21.80;54.20;;;;;;5056148;28;20418;-75
2021/11/12 00:25:50;;;;;;;5.93;5.00;;;21.80;54.20;;;;;;5056875;28;20398;-76
2021/11/12 00:28:20;;;;;;;4.30;3.90;;;21.80;54.20;;;;;;5058250;28;20433;-76
2021/11/12 00:31:04;;;;;;;4.90;4.40;;;21.80;54.20;;;;;;5041229;28;20426;-76
2021/11/12 00:39:25;;;;;;;5.33;3.57;;;21.80;54.30;;;;;;5059035;28;20390;-75
2021/11/12 00:46:55;;;;;;;4.80;4.30;;;21.80;54.40;;;;;;5061901;28;20425;-76
2021/11/12 00:49:27;;;;;;;4.47;3.73;;;21.80;54.40;;;;;;5045884;28;20417;-76
2021/11/12 00:51:55;;;;;;;5.20;4.70;;;21.80;54.40;;;;;;5045782;28;20430;-76
2021/11/12 00:54:21;;;;;;;4.70;4.30;;;21.80;54.40;;;;;;5062578;28;20418;-75
2021/11/12 01:00:11;;;;;;;5.00;4.47;;;21.80;54.30;;;;;;5062586;28;20215;-75
2021/11/12 01:02:37;;;;;;;4.70;4.27;;;21.80;54.40;;;;;;5062572;28;20446;-76
2021/11/12 01:05:04;;;;;;;4.40;4.00;;;21.80;54.40;;;;;;5045323;28;20425;-76
2021/11/12 01:07:30;;;;;;;5.27;4.77;;;21.80;54.40;;;;;;5062409;28;20411;-76
2021/11/12 01:10:04;;;;;;;4.50;3.70;;;21.80;54.40;;;;;;5062329;28;20485;-76
2021/11/12 01:12:30;;;;;;;4.13;3.73;;;21.80;54.40;;;;;;5062414;28;20419;-76
2021/11/12 01:14:57;;;;;;;4.43;4.03;;;21.80;54.40;;;;;;5045303;28;20410;-76
2021/11/12 01:17:23;;;;;;;4.90;4.47;;;21.80;54.40;;;;;;5044065;28;20414;-74
2021/11/12 01:19:50;;;;;;;4.60;4.07;;;21.80;54.40;;;;;;5058774;28;20401;-75
2021/11/12 01:22:17;;;;;;;5.93;4.40;;;21.80;54.40;;;;;;5041905;28;20469;-75
2021/11/12 01:24:43;;;;;;;5.70;4.50;;;21.80;54.40;;;;;;5041900;28;20418;-76
2021/11/12 01:27:10;;;;;;;5.33;4.83;;;21.80;54.40;;;;;;5044362;28;20505;-74
2021/11/12 01:29:35;;;;;;;4.90;3.87;;;21.80;54.40;;;;;;5060787;28;20509;-76
2021/11/12 01:32:21;;;;;;;4.23;3.80;;;21.80;54.40;;;;;;5060445;28;20402;-76
2021/11/12 01:34:51;;;;;;;4.53;4.13;;;21.80;54.40;;;;;;5061552;28;20210;-76
2021/11/12 01:37:20;;;;;;;4.57;4.17;;;21.80;54.40;;;;;;5061411;28;20502;-77
2021/11/12 01:39:51;;;;;;;4.07;3.67;;;21.80;54.50;;;;;;5043658;28;20410;-76
2021/11/12 01:42:18;;;;;;;4.50;4.10;;;21.80;54.50;;;;;;5061833;28;20548;-77
2021/11/12 01:44:52;;;;;;;4.93;4.40;;;21.80;54.50;;;;;;5061858;28;20603;-76
2021/11/12 01:47:37;;;;;;;4.40;3.73;;;21.70;54.40;;;;;;5044788;28;20411;-75
2021/11/12 01:50:09;;;;;;;5.03;4.50;;;21.70;54.40;;;;;;5061749;28;20465;-76
2021/11/12 01:55:07;;;;;;;3.87;3.53;;;21.70;54.50;;;;;;5061403;28;20464;-76
2021/11/12 01:58:05;;;;;;;4.33;3.93;;;21.70;54.50;;;;;;5060942;28;20171;-76
2021/11/12 02:00:23;;;;;;;4.20;3.80;;;21.70;54.50;;;;;;5061245;28;20411;-76
2021/11/12 02:02:49;;;;;;;3.70;3.37;;;21.70;54.50;;;;;;5061300;28;20445;-76
2021/11/12 02:05:16;;;;;;;3.97;3.60;;;21.70;54.50;;;;;;5061501;28;20403;-76
2021/11/12 02:07:42;;;;;;;4.30;3.90;;;21.70;54.50;;;;;;5061402;28;20519;-76
2021/11/12 02:10:12;;;;;;;4.90;3.60;;;21.70;54.50;;;;;;5061165;28;20398;-76
2021/11/12 02:15:24;;;;;;;4.20;3.80;;;21.70;54.50;;;;;;5061214;28;20405;-76
2021/11/12 02:18:03;;;;;;;4.17;3.60;;;21.70;54.50;;;;;;5059656;28;20489;-76
2021/11/12 02:20:40;;;;;;;4.07;3.67;;;21.70;54.60;;;;;;5043674;28;20414;-76
2021/11/12 02:23:06;;;;;;;3.77;3.47;;;21.70;54.50;;;;;;5043630;28;20449;-76
2021/11/12 02:25:41;;;;;;;4.40;4.00;;;21.70;54.60;;;;;;5058827;28;20417;-76
2021/11/12 02:28:16;;;;;;;3.13;2.87;;;21.70;54.60;;;;;;5043677;28;20409;-76
2021/11/12 02:30:47;;;;;;;4.50;4.10;;;21.70;54.60;;;;;;5043253;28;20414;-76
2021/11/12 02:33:17;;;;;;;4.97;3.63;;;21.70;54.60;;;;;;5042611;28;20411;-75
2021/11/12 02:36:16;;;;;;;3.60;3.30;;;21.70;54.60;;;;;;5043575;28;20413;-76
2021/11/12 02:38:50;;;;;;;4.57;3.60;;;21.70;54.60;;;;;;5060693;28;20390;-76
2021/11/12 02:41:17;;;;;;;4.23;3.83;;;21.70;54.60;;;;;;5043541;28;20442;-76
2021/11/12 02:43:47;;;;;;;4.33;3.60;;;21.70;54.60;;;;;;5043396;28;20414;-75
2021/11/12 02:46:16;;;;;;;3.60;3.30;;;21.70;54.60;;;;;;5043570;28;20442;-76
2021/11/12 02:48:42;;;;;;;4.00;3.47;;;21.70;54.60;;;;;;5060589;28;20438;-76
2021/11/12 02:51:12;;;;;;;4.23;3.83;;;21.70;54.60;;;;;;5060421;28;20478;-76
2021/11/12 02:53:39;;;;;;;4.00;3.60;;;21.70;54.60;;;;;;5043311;28;20437;-76
2021/11/12 02:56:26;;;;;;;4.27;3.63;;;21.70;54.60;;;;;;5060614;28;20426;-76
2021/11/12 02:58:53;;;;;;;4.10;3.70;;;21.70;54.60;;;;;;5060296;28;20437;-77
2021/11/12 03:01:21;;;;;;;4.40;3.57;;;21.70;54.60;;;;;;5039529;28;20486;-76
2021/11/12 03:03:48;;;;;;;3.70;3.40;;;21.70;54.60;;;;;;5046704;28;20433;-76
2021/11/12 03:06:13;;;;;;;4.50;4.10;;;21.70;55.10;;;;;;5040605;28;20410;-77
2021/11/12 03:08:39;;;;;;;4.30;3.63;;;21.70;54.60;;;;;;5025777;28;20435;-77
2021/11/12 03:11:06;;;;;;;3.87;3.17;;;21.70;54.60;;;;;;5059740;28;20223;-76
2021/11/12 03:13:32;;;;;;;3.53;3.23;;;21.60;54.50;;;;;;5059883;28;20422;-76
2021/11/12 03:16:00;;;;;;;4.73;4.27;;;21.60;54.50;;;;;;5043041;28;20435;-76
2021/11/12 03:18:27;;;;;;;3.87;3.43;;;21.60;54.50;;;;;;5043000;28;20175;-76
2021/11/12 03:20:53;;;;;;;4.23;3.70;;;21.60;54.50;;;;;;5059866;28;20399;-76
2021/11/12 03:23:23;;;;;;;4.20;3.80;;;21.60;54.50;;;;;;5042720;28;20431;-76
2021/11/12 04:18:57;;;;;;;;;;;;;;;;;;;;;
2021/11/12 05:25:49;;;;;;;;;;;;;;;;;;;;;
2021/11/12 05:51:43;;;;;;;3.17;2.87;;;21.50;54.60;;;;;;4986766;28;20435;-76
2021/11/12 05:56:55;;;;;;;3.40;3.07;;;21.50;54.60;;;;;;5041677;28;20421;-76
2021/11/12 05:59:24;;;;;;;3.40;3.10;;;21.50;54.60;;;;;;5046868;28;20889;-76
2021/11/12 06:01:50;;;;;;;3.20;2.90;;;21.50;54.50;;;;;;5029240;28;20463;-76
2021/11/12 06:04:16;;;;;;;3.67;3.10;;;21.60;54.50;;;;;;5047712;28;20415;-76
2021/11/12 06:06:43;;;;;;;3.60;3.07;;;21.60;54.50;;;;;;5029924;28;20415;-77
2021/11/12 06:09:09;;;;;;;3.67;3.30;;;21.60;54.50;;;;;;5010987;28;20271;-77
2021/11/12 06:11:36;;;;;;;3.60;3.30;;;21.60;54.50;;;;;;5047408;28;20430;-78
2021/11/12 06:14:05;;;;;;;5.30;3.97;;;21.60;54.40;;;;;;5047694;28;20429;-76
2021/11/12 06:16:31;;;;;;;4.93;4.43;;;21.60;54.90;;;;;;5047729;28;20418;-76
2021/11/12 06:18:57;;;;;;;3.93;3.53;;;21.60;54.30;;;;;;5029423;28;20430;-77
2021/11/12 06:21:24;;;;;;;5.10;3.67;;;21.60;54.30;;;;;;5028406;28;20990;-77
2021/11/12 06:23:50;;;;;;;3.47;3.07;;;21.60;54.30;;;;;;5048219;28;20415;-76
2021/11/12 06:26:16;;;;;;;3.90;3.47;;;21.60;54.30;;;;;;5047452;28;20445;-76
2021/11/12 06:28:42;;;;;;;3.23;2.93;;;21.60;54.30;;;;;;5030372;28;20426;-77
2021/11/12 06:31:08;;;;;;;3.20;2.90;;;21.60;54.30;;;;;;5026456;28;20510;-76
2021/11/12 06:33:34;;;;;;;3.83;2.90;;;21.60;54.40;;;;;;5014129;28;20434;-77
2021/11/12 06:36:00;;;;;;;7.60;3.20;;;21.60;54.40;;;;;;5047816;28;20410;-76
2021/11/12 06:38:29;;;;;;;4.93;3.20;;;21.60;54.40;;;;;;5047086;28;20186;-77
2021/11/12 06:40:56;;;;;;;3.60;2.70;;;21.60;54.40;;;;;;5047215;28;20184;-77
2021/11/12 06:43:30;;;;;;;3.60;2.80;;;21.60;54.40;;;;;;5027740;28;20427;-76
2021/11/12 06:54:48;;;;;;;3.53;3.20;;;21.60;54.50;;;;;;5041041;28;20425;-76
2021/11/12 06:57:15;;;;;;;3.13;2.83;;;21.60;54.50;;;;;;5047527;28;20923;-76
2021/11/12 06:59:41;;;;;;;5.53;3.80;;;21.60;54.60;;;;;;5047059;28;20245;-76
2021/11/12 07:02:10;;;;;;;3.70;2.97;;;21.60;54.60;;;;;;5028901;28;20454;-77
2021/11/12 07:04:37;;;;;;;4.23;3.50;;;21.60;54.50;;;;;;5046737;28;20452;-76
2021/11/12 07:07:03;;;;;;;4.60;3.30;;;21.60;54.50;;;;;;5029537;28;20414;-76
2021/11/12 07:09:29;;;;;;;4.30;3.10;;;21.60;54.50;;;;;;5046569;28;20474;-77
2021/11/12 07:11:54;;;;;;;3.10;2.80;;;21.60;54.50;;;;;;5025328;28;20415;-76
2021/11/12 07:14:20;;;;;;;3.43;2.97;;;21.60;54.50;;;;;;5044492;28;20211;-77
2021/11/12 07:16:46;;;;;;;3.60;3.10;;;21.60;54.50;;;;;;5026117;28;20172;-76
2021/11/12 07:19:11;;;;;;;5.47;3.63;;;21.60;54.50;;;;;;5034203;28;20766;-76
2021/11/12 07:21:39;;;;;;;4.23;2.90;;;21.60;54.40;;;;;;5009901;28;20263;-76
2021/11/12 07:24:05;;;;;;;3.63;3.30;;;21.60;54.40;;;;;;5009875;28;20674;-76
2021/11/12 07:26:33;;;;;;;3.77;3.37;;;21.70;54.50;;;;;;5010453;28;20411;-76
2021/11/12 07:29:00;;;;;;;2.60;2.40;;;21.70;54.50;;;;;;4994027;28;20411;-76
2021/11/12 07:31:26;;;;;;;3.63;3.33;;;21.70;54.40;;;;;;5027500;28;20462;-76
2021/11/12 07:33:53;;;;;;;2.67;2.47;;;21.70;54.40;;;;;;5009958;28;20456;-76
2021/11/12 07:36:21;;;;;;;3.90;2.87;;;21.70;54.40;;;;;;5040719;28;20429;-77
2021/11/12 07:41:21;;;;;;;3.77;3.10;;;21.70;54.30;;;;;;5038699;28;20476;-76
2021/11/12 07:50:03;;;;;;;3.10;2.80;;;21.80;54.30;;;;;;5046211;28;20388;-76
2021/11/12 07:52:31;;;;;;;3.70;2.53;;;21.80;54.40;;;;;;5029401;28;20979;-76
2021/11/12 07:55:01;;;;;;;3.93;3.07;;;21.80;54.40;;;;;;5025571;28;20501;-76
2021/11/12 07:57:27;;;;;;;3.63;3.33;;;21.80;54.30;;;;;;5039254;28;20468;-76
2021/11/12 07:59:53;;;;;;;3.30;3.00;;;21.80;54.30;;;;;;5046468;28;20433;-76
2021/11/12 08:02:19;;;;;;;3.23;2.93;;;21.80;54.30;;;;;;5046672;28;20454;-76
2021/11/12 08:04:47;;;;;;;4.30;2.90;;;21.80;54.20;;;;;;5046318;28;20191;-76
2021/11/12 08:07:15;;;;;;;4.00;2.93;;;21.80;54.20;;;;;;5029187;28;20454;-76
2021/11/12 08:09:51;;;;;;;3.10;2.80;;;21.80;54.20;;;;;;5046144;28;20441;-76
2021/11/12 08:21:03;;;;;;;3.57;3.00;;;21.80;54.20;;;;;;4929348;29;20925;-78
2021/11/12 08:26:15;;;;;;;2.70;2.50;;;21.80;54.20;;;;;;4946223;29;20479;-76
2021/11/12 08:42:17;;;;;;;2.67;2.47;;;21.90;54.30;;;;;;4945225;29;20603;-77
2021/11/12 08:44:47;;;;;;;3.10;2.77;;;21.90;54.30;;;;;;4982693;28;20433;-77
2021/11/12 08:47:19;;;;;;;2.83;2.60;;;21.90;54.30;;;;;;4983779;28;21545;-77
2021/11/12 08:49:45;;;;;;;3.27;2.73;;;21.90;54.30;;;;;;4980349;28;20421;-77
2021/11/12 08:52:17;;;;;;;4.50;2.70;;;22.00;54.40;;;;;;5010150;28;20484;-77
2021/11/12 08:54:45;;;;;;;3.97;2.90;;;22.00;54.40;;;;;;5026357;28;20453;-76
2021/11/12 08:57:14;;;;;;;3.40;2.83;;;22.00;54.30;;;;;;5043260;28;20413;-77
2021/11/12 08:59:43;;;;;;;3.10;2.73;;;22.00;54.30;;;;;;5024694;28;20422;-76
2021/11/12 09:02:13;;;;;;;2.73;2.50;;;22.00;54.30;;;;;;5021899;28;20557;-78
2021/11/12 09:04:39;;;;;;;2.77;2.47;;;22.00;54.30;;;;;;5017013;28;20407;-76
2021/11/12 09:07:05;;;;;;;2.70;2.50;;;22.00;54.30;;;;;;5021609;28;20411;-76
2021/11/12 09:09:32;;;;;;;3.00;2.57;;;22.00;54.30;;;;;;5026913;28;20554;-76
2021/11/12 09:11:58;;;;;;;2.50;2.20;;;22.00;54.30;;;;;;5027600;28;20419;-76
2021/11/12 09:14:26;;;;;;;2.90;2.30;;;22.00;54.30;;;;;;5029412;28;20422;-76
2021/11/12 09:16:52;;;;;;;2.93;2.60;;;22.00;54.30;;;;;;5048330;28;20449;-76
2021/11/12 09:19:18;;;;;;;3.33;3.00;;;22.00;54.30;;;;;;5023790;28;20418;-76
2021/11/12 09:21:46;;;;;;;4.27;2.83;;;22.00;54.30;;;;;;5030657;28;20203;-76
2021/11/12 09:24:12;;;;;;;3.10;2.80;;;22.00;54.20;;;;;;5030933;28;20180;-78
2021/11/12 09:26:39;;;;;;;4.80;3.30;;;22.00;54.30;;;;;;5049422;28;20411;-77
2021/11/12 09:29:10;;;;;;;4.20;2.80;;;22.10;54.30;;;;;;5049999;28;20464;-76
2021/11/12 09:31:36;;;;;;;4.10;3.03;;;22.10;54.30;;;;;;5026122;28;20426;-76
2021/11/12 09:34:05;;;;;;;3.00;2.70;;;22.10;54.30;;;;;;5030289;28;20426;-76
2021/11/12 09:36:31;;;;;;;3.77;2.90;;;22.10;54.30;;;;;;5028883;28;20438;-76
2021/11/12 09:38:57;;;;;;;2.80;2.57;;;22.10;54.30;;;;;;5047295;28;20771;-76
2021/11/12 09:41:23;;;;;;;2.70;2.37;;;22.10;54.30;;;;;;5030235;28;20466;-76
2021/11/12 09:43:50;;;;;;;3.03;2.63;;;22.10;54.30;;;;;;5048247;28;20235;-76
2021/11/12 09:46:16;;;;;;;5.80;3.30;;;22.10;54.30;;;;;;5048127;28;20498;-77
2021/11/12 09:48:43;;;;;;;4.43;3.50;;;22.10;54.30;;;;;;5048119;28;20414;-76
2021/11/12 09:51:10;;;;;;;4.17;2.87;;;22.10;54.30;;;;;;5027429;28;20816;-77
2021/11/12 09:53:37;;;;;;;3.70;3.33;;;22.10;54.30;;;;;;5029869;28;20489;-76
2021/11/12 09:56:05;;;;;;;3.50;3.20;;;22.10;54.30;;;;;;5048040;28;20422;-76
2021/11/12 09:58:31;;;;;;;3.50;3.10;;;22.10;54.30;;;;;;5028831;28;20446;-76
2021/11/12 10:00:58;;;;;;;3.10;2.80;;;22.10;54.30;;;;;;5026714;28;20416;-76
2021/11/12 10:03:32;;;;;;;4.30;3.20;;;22.10;54.30;;;;;;5045760;28;20259;-77
2021/11/12 10:05:58;;;;;;;4.03;3.03;;;22.10;54.30;;;;;;5039547;28;20418;-76
2021/11/12 10:08:39;;;;;;;4.13;3.50;;;22.10;54.30;;;;;;5047419;28;20421;-76
2021/11/12 10:11:09;;;;;;;3.37;3.07;;;22.10;54.30;;;;;;5046858;28;20422;-76
2021/11/12 10:13:41;;;;;;;4.23;3.30;;;22.10;54.30;;;;;;5027927;28;20442;-77
2021/11/12 10:19:09;;;;;;;3.43;3.13;;;22.10;54.30;;;;;;5041464;28;20403;-76
2021/11/12 10:21:38;;;;;;;3.97;3.33;;;22.10;54.30;;;;;;5046371;28;20485;-76
2021/11/12 10:24:17;;;;;;;5.30;3.30;;;22.10;54.30;;;;;;5047119;28;20414;-76
2021/11/12 10:26:50;;;;;;;3.97;3.30;;;22.10;54.30;;;;;;5046029;28;20402;-77
2021/11/12 10:29:23;;;;;;;3.20;2.83;;;22.10;54.40;;;;;;5029352;28;20991;-76
2021/11/12 10:31:52;;;;;;;3.70;3.40;;;22.10;54.30;;;;;;5039836;28;20421;-76
2021/11/12 10:34:22;;;;;;;3.20;2.70;;;22.10;54.30;;;;;;5047172;28;20901;-77
2021/11/12 10:37:19;;;;;;;3.73;3.00;;;22.10;54.30;;;;;;5029562;28;20449;-76
2021/11/12 10:40:08;;;;;;;3.00;2.70;;;22.10;54.30;;;;;;5028450;28;20425;-76
2021/11/12 10:42:43;;;;;;;3.10;2.80;;;22.10;54.30;;;;;;5022107;28;20513;-76
2021/11/12 10:45:32;;;;;;;4.10;2.80;;;22.10;54.30;;;;;;5046040;28;20410;-76
2021/11/12 10:48:06;;;;;;;3.30;2.90;;;22.10;54.30;;;;;;5024590;28;20484;-76
2021/11/12 10:50:34;;;;;;;3.87;3.00;;;22.00;54.30;;;;;;5026934;28;20460;-76
2021/11/12 10:53:08;;;;;;;3.93;2.77;;;22.00;54.30;;;;;;5028243;28;20419;-76
2021/11/12 10:55:36;;;;;;;3.97;3.40;;;22.10;54.30;;;;;;5027332;28;20442;-76
2021/11/12 10:58:11;;;;;;;3.00;2.60;;;22.10;54.40;;;;;;5047490;28;20426;-76
2021/11/12 11:00:45;;;;;;;2.73;2.53;;;22.10;54.40;;;;;;5029971;28;20426;-75
2021/11/12 11:03:22;;;;;;;4.47;3.30;;;22.10;54.40;;;;;;5027819;28;20547;-75
2021/11/12 11:05:51;;;;;;;4.23;3.33;;;22.10;54.40;;;;;;5029472;28;20525;-75
2021/11/12 11:08:29;;;;;;;3.40;2.60;;;22.10;54.40;;;;;;5046568;28;20418;-76
2021/11/12 11:11:02;;;;;;;2.80;2.60;;;22.10;54.30;;;;;;5048138;28;20497;-76
2021/11/12 11:13:33;;;;;;;3.80;3.40;;;22.10;54.90;;;;;;5040307;28;20414;-76
2021/11/12 11:16:02;;;;;;;2.93;2.57;;;22.10;54.30;;;;;;5046463;28;20414;-76
2021/11/12 11:18:30;;;;;;;6.80;3.10;;;22.10;54.30;;;;;;5043852;28;20434;-77
2021/11/12 11:24:04;;;;;;;3.43;2.87;;;22.10;54.30;;;;;;5043864;28;20426;-80
2021/11/12 11:26:49;;;;;;;3.07;2.77;;;22.10;54.30;;;;;;5046140;28;20395;-82
2021/11/12 11:29:21;;;;;;;4.00;3.17;;;22.10;54.30;;;;;;5027911;28;20410;-76
2021/11/12 11:31:47;;;;;;;3.67;2.93;;;22.10;54.40;;;;;;5046063;28;20407;-76
2021/11/12 11:34:13;;;;;;;3.57;2.87;;;22.10;54.40;;;;;;5046330;28;20900;-76
2021/11/12 11:36:44;;;;;;;3.90;3.07;;;22.10;54.40;;;;;;5028173;28;20176;-77
2021/11/12 11:39:15;;;;;;;3.50;3.10;;;22.10;54.40;;;;;;5028345;28;20184;-76
2021/11/12 11:41:45;;;;;;;3.03;2.73;;;22.10;54.40;;;;;;5030269;28;20469;-76
2021/11/12 11:44:16;;;;;;;3.37;3.07;;;22.10;54.40;;;;;;5029383;28;20504;-76
2021/11/12 11:46:45;;;;;;;3.53;2.93;;;22.10;54.30;;;;;;5045762;28;20478;-75
2021/11/12 11:49:22;;;;;;;3.13;2.80;;;22.10;54.40;;;;;;5045638;28;20418;-76
2021/11/12 11:51:57;;;;;;;4.60;3.20;;;22.10;54.30;;;;;;5045199;28;20516;-76
2021/11/12 11:54:25;;;;;;;3.70;3.27;;;22.10;54.30;;;;;;5027325;28;20442;-76
2021/11/12 11:56:59;;;;;;;3.40;2.60;;;22.10;54.30;;;;;;5045177;28;20442;-75
2021/11/12 11:59:32;;;;;;;3.30;3.00;;;22.10;54.30;;;;;;5023521;28;20419;-76
2021/11/12 12:01:59;;;;;;;4.37;3.10;;;22.10;54.30;;;;;;5028332;28;20464;-75
2021/11/12 12:04:29;;;;;;;3.33;3.03;;;22.10;54.30;;;;;;5024793;28;20427;-76
2021/11/12 12:07:01;;;;;;;3.37;2.60;;;22.10;54.30;;;;;;5044217;28;20938;-75
2021/11/12 12:12:51;;;;;;;2.80;2.40;;;22.10;54.30;;;;;;5042970;28;20405;-78
2021/11/12 12:15:20;;;;;;;3.10;2.80;;;22.10;54.30;;;;;;5026970;28;20418;-77
2021/11/12 12:17:50;;;;;;;3.30;2.43;;;22.10;54.30;;;;;;5027733;28;20418;-76
2021/11/12 12:40:36;;;;;;;5.07;4.10;;;22.00;54.40;;;;;;5044053;28;20395;-76
2021/11/12 13:25:47;;;;;;;5.07;4.30;;;21.90;54.60;;;;;;5061447;28;20385;-76
2021/11/12 13:28:28;;;;;;;5.53;3.50;;;22.00;54.60;;;;;;5044496;28;20418;-76
2021/11/12 13:31:02;;;;;;;6.47;3.53;;;22.00;54.60;;;;;;5044679;28;20429;-76
2021/11/12 13:33:37;;;;;;;7.83;4.37;;;22.00;54.60;;;;;;5062250;28;20407;-76
2021/11/12 13:36:19;;;;;;;4.40;3.67;;;21.90;54.50;;;;;;5045012;28;20548;-76
2021/11/12 13:38:48;;;;;;;6.30;3.80;;;22.00;54.60;;;;;;5044709;28;20422;-76
2021/11/12 13:41:15;;;;;;;4.70;3.20;;;22.00;54.60;;;;;;5061788;28;20402;-76
2021/11/12 13:43:44;;;;;;;4.93;3.70;;;22.00;54.60;;;;;;5044881;28;20437;-76
2021/11/12 13:46:11;;;;;;;4.93;3.10;;;22.00;54.60;;;;;;5061761;28;20403;-76
2021/11/12 13:48:51;;;;;;;5.20;3.70;;;22.00;54.60;;;;;;5061434;28;20430;-77
2021/11/12 13:51:29;;;;;;;3.93;3.47;;;22.00;54.60;;;;;;5060732;28;20399;-76
2021/11/12 13:53:56;;;;;;;4.53;3.67;;;22.00;54.60;;;;;;5061197;28;20418;-77
2021/11/12 13:56:23;;;;;;;4.30;3.60;;;22.00;54.60;;;;;;5044531;28;20434;-76
2021/11/12 13:59:06;;;;;;;5.40;4.00;;;22.00;54.60;;;;;;5044331;28;20422;-76
2021/11/12 14:01:33;;;;;;;4.87;4.00;;;22.00;54.60;;;;;;5044289;28;20446;-75
2021/11/12 14:04:01;;;;;;;8.97;4.10;;;22.00;54.60;;;;;;5043972;28;20433;-75
2021/11/12 14:06:36;;;;;;;9.90;4.60;;;22.00;54.60;;;;;;5060649;28;20417;-76
2021/11/12 14:09:04;;;;;;;5.67;4.17;;;22.00;54.60;;;;;;5043976;28;20425;-76
2021/11/12 14:11:33;;;;;;;4.23;3.20;;;21.90;54.60;;;;;;5043520;28;20441;-76
2021/11/12 14:14:03;;;;;;;5.53;4.00;;;21.90;54.60;;;;;;5043199;28;20406;-76
2021/11/12 14:16:38;;;;;;;5.00;3.00;;;21.90;54.60;;;;;;5043550;28;20414;-76
2021/11/12 14:22:18;;;;;;;4.47;3.57;;;21.90;54.60;;;;;;5043222;28;20480;-76
2021/11/12 14:24:51;;;;;;;5.60;3.87;;;21.90;54.60;;;;;;5057126;28;20442;-76
2021/11/12 14:32:50;;;;;;;4.83;3.90;;;21.90;54.70;;;;;;5060554;28;20403;-76
2021/11/12 14:50:59;;;;;;;4.80;3.50;;;21.90;54.60;;;;;;5060469;28;20429;-75
2021/11/12 14:53:47;;;;;;;4.63;3.67;;;21.90;54.60;;;;;;5060331;28;20390;-76
2021/11/12 14:58:43;;;;;;;6.87;3.60;;;21.90;54.60;;;;;;5059277;28;20449;-76
2021/11/12 15:01:13;;;;;;;4.70;3.50;;;21.90;54.60;;;;;;5041695;28;20414;-76
2021/11/12 15:03:43;;;;;;;5.73;3.60;;;21.90;54.60;;;;;;5041402;28;20442;-76
2021/11/12 15:06:14;;;;;;;5.67;3.23;;;21.90;54.60;;;;;;5041551;28;20425;-76
2021/11/12 15:08:52;;;;;;;3.87;3.47;;;21.90;54.60;;;;;;5059048;28;20419;-76
2021/11/12 15:11:23;;;;;;;4.30;3.40;;;21.90;54.60;;;;;;5041889;28;20425;-76
2021/11/12 15:13:50;;;;;;;4.97;3.47;;;21.90;54.60;;;;;;5042120;28;20406;-76
2021/11/12 15:18:44;;;;;;;4.33;3.30;;;21.90;54.60;;;;;;5058912;28;20456;-76
2021/11/12 15:21:25;;;;;;;5.40;3.50;;;21.90;54.60;;;;;;5041683;28;20413;-76
2021/11/12 15:26:55;;;;;;;4.90;3.63;;;21.90;54.60;;;;;;5057974;28;20434;-78
2021/11/12 15:29:43;;;;;;;4.53;3.00;;;21.90;54.60;;;;;;5039189;28;20527;-76
2021/11/12 15:32:22;;;;;;;4.83;3.50;;;21.90;54.60;;;;;;5037497;28;20441;-76
2021/11/12 15:45:07;;;;;;;4.70;3.00;;;21.90;54.80;;;;;;5054712;28;20405;-75
2021/11/12 15:47:56;;;;;;;4.93;3.57;;;21.80;54.70;;;;;;5033205;28;20405;-78
2021/11/12 15:50:31;;;;;;;3.63;2.80;;;21.80;54.80;;;;;;5040299;28;20468;-76
2021/11/12 15:54:03;;;;;;;5.23;3.37;;;21.80;54.80;;;;;;5039896;28;20410;-78
2021/11/12 15:56:06;;;;;;;4.20;3.23;;;21.80;54.80;;;;;;5009907;28;1138695;-78
2021/11/12 16:19:46;;;;;;;3.60;2.77;;;21.80;54.80;;;;;;5054821;28;20410;-80
2021/11/12 16:25:01;;;;;;;3.43;2.70;;;21.80;54.80;;;;;;5057126;28;20426;-79
2021/11/12 16:27:27;;;;;;;4.70;3.07;;;21.80;54.70;;;;;;5041258;28;20422;-78
2021/11/12 16:29:54;;;;;;;5.30;3.77;;;21.80;54.70;;;;;;5038614;28;20446;-77
2021/11/12 16:32:25;;;;;;;3.77;3.37;;;21.80;54.70;;;;;;5056098;28;20414;-76
2021/11/12 16:34:56;;;;;;;5.20;2.70;;;21.80;54.70;;;;;;5056243;28;20490;-78
2021/11/12 16:37:25;;;;;;;4.90;3.30;;;21.80;54.70;;;;;;5040055;28;20411;-76
2021/11/12 16:43:11;;;;;;;3.23;2.90;;;21.80;54.70;;;;;;5041302;28;20446;-77
2021/11/12 16:46:04;;;;;;;4.10;3.07;;;21.80;54.70;;;;;;5036457;28;20401;-76
2021/11/12 16:48:38;;;;;;;6.23;2.90;;;21.80;54.70;;;;;;5057305;28;20482;-76
2021/11/12 16:56:40;;;;;;;4.03;2.67;;;21.80;54.70;;;;;;5055579;28;20430;-77
2021/11/12 17:07:22;;;;;;;3.60;3.30;;;21.80;54.60;;;;;;5003030;28;20398;-78
2021/11/12 17:10:03;;;;;;;4.80;3.77;;;21.80;54.60;;;;;;5054446;28;20406;-77
2021/11/12 17:15:36;;;;;;;3.00;2.63;;;21.80;54.70;;;;;;5038203;28;20405;-76
2021/11/12 17:18:13;;;;;;;4.27;2.70;;;21.80;54.70;;;;;;5036550;28;20407;-79
2021/11/12 17:48:10;;;;;;;3.50;2.80;;;21.80;54.80;;;;;;5001367;28;20428;-76
2021/11/12 17:50:44;;;;;;;2.50;2.30;;;21.80;54.80;;;;;;5034039;28;20446;-76
2021/11/12 18:04:22;;;;;;;5.30;4.80;;;21.80;54.80;;;;;;5041332;28;20440;-78
2021/11/12 18:23:19;;;;;;;4.60;3.00;;;21.80;54.60;;;;;;5039683;28;20462;-76
2021/11/12 21:45:03;;;;;;;6.20;3.00;;;21.80;54.80;;;;;;5059059;28;20454;-75
2021/11/12 21:47:29;;;;;;;3.53;2.80;;;21.80;54.80;;;;;;5058375;28;20419;-75
2021/11/12 21:49:55;;;;;;;2.67;2.47;;;21.80;54.80;;;;;;5040250;28;20457;-76
2021/11/12 21:52:21;;;;;;;3.90;3.10;;;21.80;54.80;;;;;;5040132;28;20183;-75
2021/11/12 21:54:47;;;;;;;3.60;3.07;;;21.80;54.80;;;;;;5041725;28;20445;-75
2021/11/12 21:57:16;;;;;;;3.33;2.60;;;21.80;54.80;;;;;;5058719;28;20231;-76
2021/11/12 21:59:42;;;;;;;3.37;2.73;;;21.80;54.70;;;;;;5052327;28;20501;-75
2021/11/12 22:02:08;;;;;;;2.97;2.73;;;21.80;54.70;;;;;;5041073;28;20508;-75
2021/11/12 22:04:34;;;;;;;2.87;2.60;;;21.80;54.70;;;;;;5040556;28;20172;-76
2021/11/12 22:07:00;;;;;;;7.37;3.20;;;21.80;54.70;;;;;;5040540;28;20429;-75
2021/11/12 22:09:26;;;;;;;3.10;2.80;;;21.80;54.70;;;;;;5040661;28;20429;-76
2021/11/12 22:12:29;;;;;;;3.20;2.67;;;21.90;54.70;;;;;;5039936;28;20410;-76
2021/11/12 22:15:05;;;;;;;2.60;2.17;;;21.90;54.70;;;;;;5036858;28;20428;-75
2021/11/12 22:17:31;;;;;;;4.90;2.60;;;21.90;54.70;;;;;;5040473;28;20426;-76
2021/11/12 22:19:58;;;;;;;3.03;2.83;;;21.80;54.70;;;;;;5041055;28;20415;-75
2021/11/12 22:22:24;;;;;;;3.07;2.47;;;21.80;54.70;;;;;;5058254;28;20477;-76
2021/11/12 22:24:50;;;;;;;2.60;2.40;;;21.80;54.70;;;;;;5041504;28;20398;-76
2021/11/12 22:27:16;;;;;;;3.20;2.90;;;21.80;54.70;;;;;;5057931;28;20172;-76
2021/11/12 22:29:42;;;;;;;3.27;2.97;;;21.80;54.70;;;;;;5058009;28;20411;-76
2021/11/12 22:32:08;;;;;;;3.73;2.80;;;21.80;54.70;;;;;;5050772;28;20410;-76
2021/11/12 22:34:37;;;;;;;3.40;3.10;;;21.80;54.70;;;;;;5039889;28;20183;-75
2021/11/12 22:37:03;;;;;;;3.50;2.60;;;21.80;54.70;;;;;;5015883;28;20210;-75
2021/11/12 22:39:29;;;;;;;3.00;2.50;;;21.80;54.80;;;;;;5030949;28;20808;-75
2021/11/12 22:41:55;;;;;;;3.27;2.60;;;21.80;54.80;;;;;;5030453;28;20204;-74
2021/11/12 22:44:20;;;;;;;3.03;2.53;;;21.80;54.80;;;;;;5031452;28;20176;-75
2021/11/12 22:46:46;;;;;;;3.10;2.70;;;21.80;54.80;;;;;;5030870;28;20175;-74
2021/11/12 22:49:12;;;;;;;3.60;2.87;;;21.80;54.80;;;;;;5031537;28;20168;-75
2021/11/12 22:51:39;;;;;;;3.17;2.87;;;21.80;54.80;;;;;;5013774;28;20184;-75
2021/11/12 22:54:06;;;;;;;3.07;2.77;;;21.80;54.80;;;;;;5013643;28;20412;-74
2021/11/12 22:56:32;;;;;;;3.90;2.40;;;21.80;54.80;;;;;;5030567;28;20434;-74
2021/11/12 22:59:01;;;;;;;3.77;3.10;;;21.80;54.80;;;;;;5013314;28;20415;-74
2021/11/12 23:01:31;;;;;;;2.80;2.53;;;21.80;54.80;;;;;;5012482;28;20176;-74
2021/11/12 23:03:58;;;;;;;3.47;2.90;;;21.80;54.80;;;;;;5013006;28;20415;-74
2021/11/12 23:06:24;;;;;;;3.37;2.60;;;21.80;54.80;;;;;;5030810;28;20526;-74
2021/11/12 23:08:50;;;;;;;2.63;2.43;;;21.80;54.80;;;;;;5030077;28;20408;-74
2021/11/12 23:11:17;;;;;;;3.50;2.50;;;21.80;54.80;;;;;;5030116;28;20403;-74
2021/11/12 23:13:45;;;;;;;5.47;2.50;;;21.80;54.80;;;;;;5030164;28;20236;-74
2021/11/12 23:16:11;;;;;;;2.73;2.53;;;21.80;54.80;;;;;;5030010;28;20407;-73
2021/11/12 23:18:38;;;;;;;3.60;2.60;;;21.80;54.80;;;;;;5012504;28;20415;-73
2021/11/12 23:21:05;;;;;;;3.10;2.80;;;21.80;54.80;;;;;;5012628;28;20419;-73
2021/11/12 23:23:33;;;;;;;2.90;2.53;;;21.80;54.80;;;;;;5013184;28;20523;-73
2021/11/12 23:25:59;;;;;;;3.33;3.03;;;21.80;54.90;;;;;;4995763;28;20428;-75
2021/11/12 23:28:25;;;;;;;2.50;2.30;;;21.80;54.90;;;;;;5030460;28;20439;-73
2021/11/12 23:30:51;;;;;;;3.17;2.90;;;21.80;54.90;;;;;;5013596;28;20423;-74
2021/11/12 23:33:18;;;;;;;2.80;2.37;;;21.80;54.90;;;;;;5029489;28;20414;-74